Keauhou, Hawaii
Current Conditions -  °F | °C
As of 8:53 AM on Friday 24 Oct 2014 (Local Time) from PHKO Reporting Station
Few Clouds Few Clouds  
Wind Chill: 83°   Ceiling: Unl
Heat Index: 86°   Visibility: 10mi
Dew Point: 68°   Wind: 3mph
Humidity: 60%   Direction: 250°WSW
Pressure: 30.01"   Gusts: NA
Location:  19.56°N, 155.96°W
Report Text: PHKO 241853Z 25003KT 10SM FEW034 28/20 A3001 RMK AO2 SLP162 T02830200
Loading
Personal Weather Stations






























Interactive Weather Map
Tropical Storm Tracking
New forecast layout! Learn more

10-Day Weather Forecast

Advertisements
Track Severe Weather on mobile